Alvarado, Texas
Current Conditions -  °F | °C
As of 11:48 AM on Friday 24 Oct 2014 (Local Time) from KFWS Reporting Station
Clear Clear  
Wind Chill: 79°   Ceiling: Unl
Heat Index: 80°   Visibility: 10mi
Dew Point: 57°   Wind: 7mph
Humidity: 47%   Direction: 190°S
Pressure: 30.18"   Gusts: NA
Location:  32.41°N, 97.21°W
Report Text: KFWS 241648Z 19006KT 10SM CLR 26/14 A3018
Loading
Personal Weather Stations






























Interactive Weather Map
Tropical Storm Tracking
New forecast layout! Learn more

10-Day Weather Forecast

Advertisements
Track Severe Weather on mobile